Bergondo, Spain
Current Conditions -  °F | °C
As of 9:00 PM on Wednesday 26 Nov 2014 (Local Time) from LECO Reporting Station
Light Fog Light Fog  
Wind Chill: 46°   Ceiling: Unl
Heat Index: 46°   Visibility: 2.5mi
Dew Point: 46°   Wind: 3mph
Humidity: 100%   Direction: 170°S
Pressure: 29.77"   Gusts: NA
Location:  43.32°N, 8.23°W
Report Text: LECO 262000Z 17003KT 4000 0600SW R21/0600N R03/P2000 PRFGNSC 08/08 Q1008 TEMPO 0600 FG
Loading
Personal Weather Stations






























Interactive Weather Map New forecast layout! Learn more

10-Day Weather Forecast

Advertisements
Track Severe Weather on mobile